• Join FlightAware (Why Join?)
  • Login
  • US Flag 
07:33AM EDT


 

Airport Tracker/Info


-or-


 

Live Flight TrackerFlight Track Log ✈ UAL33 ✈ 23-Mar-2014 ✈ RJAA / NRT - KLAX

Flight Track Log - Related Links

Times and Time Zones

All times are in EDT time to prevent confusion due to time zone crossing. See the UAL33 flight status page for this flight to view local times or setup timezone preferences in your user account.

Time Position Orientation Groundspeed Altitude Reporting Facility
EDT Latitude Longitude Course Direction KTS MPH feet Rate Location/Type
05:50AM 35.8602 140.3065 329° Northwest 224 258 4,400  Level FlightAware ADS-B (RJTK)
05:51AM 35.5871 140.8889 112° Southeast  Level FlightAware Approximate
05:51AM 35.8813 140.2951 347° North 247 284 5,000  Level FlightAware ADS-B (RJTK)
05:51AM 35.9067 140.3001 24° Northeast 264 304 6,000 2,400 Climbing FlightAware ADS-B (RJTK)
05:51AM 35.9232 140.3201 58° Northeast 282 325 6,600 1,620 Climbing FlightAware ADS-B (RJTK)
05:52AM 35.9300 140.3541 91° East 298 343 7,100 2,100 Climbing FlightAware ADS-B (RJTK)
05:52AM 35.9229 140.3849 112° Southeast 300 345 8,000 2,820 Climbing FlightAware ADS-B (RJTK)
05:52AM 35.9113 140.4179 112° Southeast 299 344 9,000 2,700 Climbing FlightAware ADS-B (RJTK)
05:53AM 35.9007 140.4479 113° Southeast 304 350 9,800 1,740 Climbing FlightAware ADS-B (RJTK)
05:53AM 35.8649 140.5001 140° Southeast 333 383 10,700 960 Climbing FlightAware ADS-B (RJTK)
05:54AM 35.8153 140.5609 125° Southeast 394 453 11,100 960 Climbing FlightAware ADS-B (RJTK)
05:55AM 35.7214 140.7189 126° Southeast 466 536 12,700 1,500 Climbing FlightAware ADS-B (RJTK)
05:56AM 35.6704 140.8071 118° Southeast 481 554 14,100 2,040 Climbing FlightAware ADS-B (RJTK)
05:56AM 35.6532 140.8593 104° East 481 554 14,800 1,500 Climbing FlightAware ADS-B (RJTK)
05:57AM 35.6390 141.0277 94° East 488 562 16,200 1,500 Climbing FlightAware ADS-B (RJTK)
05:58AM 35.6320 141.1359 94° East 503 579 17,400 1,860 Climbing FlightAware ADS-B (RJTK)
05:59AM 35.6162 141.3697 94° East 521 600 19,900 1,800 Climbing FlightAware ADS-B (RJTK)
06:00AM 35.6082 141.4853 94° East 530 610 21,000 1,680 Climbing FlightAware ADS-B (RJTK)
06:01AM 35.5995 141.6095 95° East 541 623 22,200 1,620 Climbing FlightAware ADS-B (RJTK)
06:01AM 35.5907 141.7315 95° East 549 632 23,200 1,500 Climbing FlightAware ADS-B (RJTK)
06:02AM 35.5814 141.8608 95° East 556 640 24,300 1,380 Climbing FlightAware ADS-B (RJTK)
06:03AM 35.5685 142.0365 95° East 567 652 25,500 1,200 Climbing FlightAware ADS-B (RJTK)
06:04AM 35.5496 142.2889 95° East 581 669 27,000 1,320 Climbing FlightAware ADS-B (RJTK)
06:05AM 35.5396 142.4221 95° East 582 670 28,100 1,440 Climbing FlightAware ADS-B (RJTK)
06:06AM 35.5239 142.6237 95° East 587 676 29,500 1,260 Climbing FlightAware ADS-B (RJTK)
06:07AM 35.5122 142.7711 95° East 589 678 30,400 1,260 Climbing FlightAware ADS-B (RJTK)
06:08AM 35.4983 142.9441 95° East 588 677 31,600  Climbing FlightAware ADS-B (RJTK)
06:10AM 35.6551 143.2452 57° Northeast  Level Estimated
06:11AM 35.7346 143.3988 57° Northeast  Level Estimated
06:12AM 35.8138 143.5526 58° Northeast  Level Estimated
06:13AM 35.8929 143.7068 58° Northeast  Level Estimated
06:14AM 35.9718 143.8613 58° Northeast  Level Estimated
06:15AM 36.0504 144.0161 58° Northeast  Level Estimated
06:16AM 36.1289 144.1711 58° Northeast  Level Estimated
06:17AM 36.2072 144.3265 58° Northeast  Level Estimated
06:18AM 36.2852 144.4823 58° Northeast  Level Estimated
06:19AM 36.3631 144.6383 58° Northeast  Level Estimated
06:20AM 36.4408 144.7946 58° Northeast  Level Estimated
06:21AM 36.5182 144.9513 58° Northeast  Level Estimated
06:22AM 36.5962 145.1097 58° Northeast  Level Estimated
06:23AM 36.6739 145.2684 59° Northeast  Level Estimated
06:24AM 36.7515 145.4274 59° Northeast  Level Estimated
06:25AM 36.8289 145.5871 59° Northeast  Level Estimated
06:26AM 36.9062 145.7471 59° Northeast  Level Estimated
06:27AM 36.9832 145.9074 59° Northeast  Level Estimated
06:28AM 37.0601 146.0680 59° Northeast  Level Estimated
06:29AM 37.1367 146.2290 59° Northeast  Level Estimated
06:30AM 37.2131 146.3903 59° Northeast  Level Estimated
06:31AM 37.2893 146.5519 59° Northeast  Level Estimated
06:32AM 37.3652 146.7138 59° Northeast  Level Estimated
06:33AM 37.4409 146.8761 60° Northeast  Level Estimated
06:34AM 37.5164 147.0387 60° Northeast  Level Estimated
06:35AM 37.5917 147.2016 60° Northeast  Level Estimated
06:36AM 37.6668 147.3649 60° Northeast  Level Estimated
06:37AM 37.7416 147.5285 60° Northeast  Level Estimated
06:38AM 37.8162 147.6924 60° Northeast  Level Estimated
06:39AM 37.8906 147.8566 60° Northeast  Level Estimated
06:40AM 37.9648 148.0212 60° Northeast  Level Estimated
06:41AM 38.0387 148.1861 60° Northeast  Level Estimated
06:42AM 38.1124 148.3513 60° Northeast  Level Estimated
06:43AM 38.1858 148.5169 61° Northeast  Level Estimated
06:44AM 38.2591 148.6828 61° Northeast  Level Estimated
06:45AM 38.3321 148.8491 61° Northeast  Level Estimated
06:46AM 38.4048 149.0157 61° Northeast  Level Estimated
06:47AM 38.4774 149.1826 61° Northeast  Level Estimated
06:48AM 38.5496 149.3498 61° Northeast  Level Estimated
06:49AM 38.6217 149.5174 61° Northeast  Level Estimated
06:50AM 38.6935 149.6853 61° Northeast  Level Estimated
06:51AM 38.7651 149.8536 61° Northeast  Level Estimated
06:52AM 38.8364 150.0222 61° Northeast  Level Estimated
06:53AM 38.9075 150.1911 62° Northeast  Level Estimated
06:54AM 38.9783 150.3604 62° Northeast  Level Estimated
06:55AM 39.0489 150.5300 62° Northeast  Level Estimated
06:56AM 39.1193 150.7000 62° Northeast  Level Estimated
06:57AM 39.1894 150.8702 62° Northeast  Level Estimated
06:58AM 39.2592 151.0409 62° Northeast  Level Estimated
06:59AM 39.3288 151.2118 62° Northeast  Level Estimated
07:00AM 39.3982 151.3831 62° Northeast  Level Estimated
07:01AM 39.4673 151.5548 62° Northeast  Level Estimated
07:02AM 39.5361 151.7268 63° Northeast  Level Estimated
07:03AM 39.6047 151.8991 63° Northeast  Level Estimated
07:04AM 39.6730 152.0718 63° Northeast  Level Estimated
07:05AM 39.7411 152.2448 63° Northeast  Level Estimated
07:06AM 39.8089 152.4181 63° Northeast  Level Estimated
07:07AM 39.8765 152.5918 63° Northeast  Level Estimated
07:08AM 39.9438 152.7659 63° Northeast  Level Estimated
07:09AM 40.0108 152.9402 63° Northeast  Level Estimated
07:10AM 40.0776 153.1150 63° Northeast  Level Estimated
07:11AM 40.1441 153.2900 64° Northeast  Level Estimated
07:12AM 40.2104 153.4654 64° Northeast  Level Estimated
07:13AM 40.2764 153.6412 64° Northeast  Level Estimated
07:14AM 40.3421 153.8173 64° Northeast  Level Estimated
07:15AM 40.4076 153.9937 64° Northeast  Level Estimated
07:16AM 40.4728 154.1705 64° Northeast  Level Estimated
07:17AM 40.5377 154.3476 64° Northeast  Level Estimated
07:18AM 40.6023 154.5251 64° Northeast  Level Estimated
07:19AM 40.6667 154.7029 64° Northeast  Level Estimated
07:20AM 40.7308 154.8810 65° Northeast  Level Estimated
07:21AM 40.7946 155.0595 65° Northeast  Level Estimated
07:22AM 40.8582 155.2384 65° Northeast  Level Estimated
07:23AM 40.9215 155.4175 65° Northeast  Level Estimated
07:24AM 40.9845 155.5970 65° Northeast  Level Estimated
07:25AM 41.0472 155.7769 65° Northeast  Level Estimated
07:26AM 41.1096 155.9571 65° Northeast  Level Estimated
07:27AM 41.1718 156.1376 65° Northeast  Level Estimated
07:28AM 41.2337 156.3185 65° Northeast  Level Estimated
07:29AM 41.2952 156.4998 66° East  Level Estimated
07:30AM 41.3565 156.6813 66° East  Level Estimated
07:31AM 41.4176 156.8633 66° East  Level Estimated
07:32AM 41.4783 157.0455 66° East  Level Estimated
07:33AM 41.5387 157.2281 66° East  Level Estimated
07:34AM 41.5989 157.4111 66° East  Level Estimated
07:35AM 41.6588 157.5943 66° East  Level Estimated
07:36AM 41.7183 157.7779 66° East  Level Estimated
07:37AM 41.7776 157.9619 67° East  Level Estimated
07:38AM 41.8366 158.1462 67° East  Level Estimated
07:39AM 41.8953 158.3308 67° East  Level Estimated
07:40AM 41.9537 158.5158 67° East  Level Estimated
07:41AM 42.0118 158.7011 67° East  Level Estimated
07:42AM 42.0696 158.8868 67° East  Level Estimated
07:43AM 42.1271 159.0728 67° East  Level Estimated
07:44AM 42.1843 159.2591 67° East  Level Estimated
07:45AM 42.2412 159.4458 68° East  Level Estimated
07:46AM 42.2978 159.6328 68° East  Level Estimated
07:47AM 42.3541 159.8201 68° East  Level Estimated
07:48AM 42.4101 160.0078 68° East  Level Estimated
07:49AM 42.4657 160.1958 68° East  Level Estimated
07:50AM 42.5211 160.3841 68° East  Level Estimated
07:51AM 42.5762 160.5728 68° East  Level Estimated
07:52AM 42.6309 160.7618 68° East  Level Estimated
07:53AM 42.6853 160.9511 69° East  Level Estimated
07:54AM 42.7395 161.1408 69° East  Level Estimated
07:55AM 42.7933 161.3308 69° East  Level Estimated
07:56AM 42.8468 161.5211 69° East  Level Estimated
07:57AM 42.9000 161.7117 69° East  Level Estimated
07:58AM 42.9528 161.9027 69° East  Level Estimated
07:59AM 43.0054 162.0940 69° East  Level Estimated
08:00AM 43.0576 162.2857 69° East  Level Estimated
08:01AM 43.1095 162.4776 70° East  Level Estimated
08:02AM 43.1611 162.6699 70° East  Level Estimated
08:03AM 43.2124 162.8625 70° East  Level Estimated
08:04AM 43.2633 163.0555 70° East  Level Estimated
08:05AM 43.3139 163.2487 70° East  Level Estimated
08:06AM 43.3642 163.4423 70° East  Level Estimated
08:07AM 43.4142 163.6362 70° East  Level Estimated
08:08AM 43.4638 163.8304 71° East  Level Estimated
08:09AM 43.5131 164.0250 71° East  Level Estimated
08:10AM 43.5621 164.2198 71° East  Level Estimated
08:11AM 43.6107 164.4150 71° East  Level Estimated
08:11AM 40.3667 167.5667 70° East 607 699 36,000  Level Oakland Oceanic (ODAPS)
08:23AM 41.0000 170.0000 72° East 610 702 36,000  Level Oakland Oceanic (ODAPS)
08:25AM 41.1333 170.5000 72° East 608 700 36,000  Level Oakland Oceanic (ODAPS)
08:39AM 41.8167 173.5000 74° East 606 697 36,000  Level Oakland Oceanic (ODAPS)
08:52AM 42.4167 176.5333 76° East 604 695 36,000  Level Oakland Oceanic (ODAPS)
09:06AM 42.9333 179.6000 77° East 599 689 36,000  Level Oakland Oceanic (ODAPS)
09:08AM 43.0000 180.0000 79° East 587 676 36,000 120 Level Oakland Oceanic (ODAPS)
09:20AM 43.3500 -177.3333 80° East 577 664 38,000 60 Climbing Oakland Oceanic (ODAPS)
09:34AM 43.6833 -174.2667 83° East 574 661 38,000  Level Oakland Oceanic (ODAPS)
09:48AM 43.9167 -171.2833 84° East 545 627 38,000  Level Oakland Oceanic (ODAPS)
09:54AM 44.0000 -170.0000 94° East 556 640 38,000  Level Oakland Oceanic (ODAPS)
10:02AM 43.9000 -168.3500 96° East 553 636 38,000  Level Oakland Oceanic (ODAPS)
10:16AM 43.6500 -165.4500 97° East 549 632 38,000  Level Oakland Oceanic (ODAPS)
10:30AM 43.3500 -162.6000 100° East 531 611 38,000  Level Oakland Oceanic (ODAPS)
10:43AM 43.0000 -160.0000 102° East 550 633 38,000  Level Oakland Oceanic (ODAPS)
10:43AM 42.9833 -159.8500 102° East 551 634 38,000  Level Oakland Oceanic (ODAPS)
10:57AM 42.5167 -157.0667 104° East 548 631 38,000  Level Oakland Oceanic (ODAPS)
11:11AM 41.9833 -154.2833 106° East 555 639 38,000  Level Oakland Oceanic (ODAPS)
11:25AM 41.3833 -151.5667 107° East 545 627 38,000  Level Oakland Oceanic (ODAPS)
11:33AM 41.0000 -150.0000 94° East 540 621 38,000  Level Oakland Oceanic (ODAPS)
11:39AM 40.9333 -148.8500 95° East 538 619 38,000  Level Oakland Oceanic (ODAPS)
11:53AM 40.7167 -146.1333 97° East 530 610 38,000  Level Oakland Oceanic (ODAPS)
12:07PM 40.4500 -143.4667 99° East 529 609 38,000  Level Oakland Oceanic (ODAPS)
12:20PM 40.1167 -140.8667 100° East 519 597 38,000  Level Oakland Oceanic (ODAPS)
12:25PM 40.0000 -140.0000 94° East 523 602 38,000  Level Oakland Oceanic (ODAPS)
12:34PM 39.8833 -138.2667 95° East 525 604 38,500  Climbing Oakland Oceanic (ODAPS)
12:48PM 39.6667 -135.6667 97° East 526 605 39,000  Climbing Oakland Oceanic (ODAPS)
01:02PM 39.4000 -133.0667 99° East 525 604 39,000  Level Oakland Oceanic (ODAPS)
01:16PM 39.0667 -130.5000 100° East 509 586 39,000  Level Oakland Oceanic (ODAPS)
01:19PM 39.0000 -130.0000 102° East 510 587 39,000  Level Oakland Oceanic (ODAPS)
01:30PM 38.6667 -128.0500 103° East 508 585 39,000  Level Oakland Oceanic (ODAPS)
01:33PM 38.5425 -127.4919 111° Southeast 512 589 39,000  Level Oakland Center
01:34PM 38.5334 -127.3506 104° East 510 587 39,000  Level FlightAware Transoceanic
01:34PM 38.5103 -127.3161 103° East 512 589 39,000  Level Oakland Center
01:35PM 38.5001 -127.1752 104° East 510 587 39,000  Level FlightAware Transoceanic
01:35PM 38.4783 -127.1411 103° East 511 588 39,000  Level Oakland Center
01:36PM 38.4667 -127.0000 111° Southeast 508 585 39,000 -120 Level FlightAware Transoceanic
01:36PM 38.4394 -126.9672 106° East 510 587 38,900  Descending Oakland Center
01:37PM 38.4158 -126.8324 111° Southeast 508 585 39,000 60 Climbing FlightAware Transoceanic
01:37PM 38.3881 -126.7989 111° Southeast 512 589 39,000  Level Oakland Center
01:38PM 38.3646 -126.6650 111° Southeast 508 585 39,000  Level FlightAware Transoceanic
01:38PM 38.3172 -126.6019 115° Southeast 510 587 39,000  Level Oakland Center
01:39PM 38.2569 -126.4369 115° Southeast 514 592 39,000 -60 Level Oakland Center
01:40PM 38.1975 -126.2706 114° Southeast 517 595 38,900  Descending Oakland Center
01:41PM 38.1336 -126.0981 115° Southeast 516 594 39,000  Climbing Oakland Center
01:42PM 38.0725 -125.9328 115° Southeast 518 596 39,000  Level Oakland Center
01:43PM 38.0122 -125.7681 115° Southeast 518 596 39,000  Level Oakland Center
01:44PM 37.9486 -125.6006 116° Southeast 524 603 39,000 -60 Level Oakland Center
01:45PM 37.8858 -125.4308 115° Southeast 530 610 38,900  Descending Oakland Center
01:46PM 37.8222 -125.2617 115° Southeast 533 613 39,000  Climbing Oakland Center
01:47PM 37.7583 -125.0928 116° Southeast 536 617 38,900  Descending Oakland Center
01:53PM 37.4018 -124.1729 116° Southeast 534 615 39,000  Climbing FlightAware ADS-B
01:54PM 37.2989 -123.9112 116° Southeast 529 609 39,000  Level FlightAware ADS-B
01:56PM 37.1864 -123.6275 116° Southeast 530 610 39,000  Level FlightAware ADS-B
01:56PM 37.1482 -123.5320 117° Southeast 530 610 39,000  Level FlightAware ADS-B
01:57PM 37.1537 -123.5458 116° Southeast 530 610 39,000  Level FlightAware ADS-B
01:58PM 37.0702 -123.3370 117° Southeast 530 610 39,000  Level FlightAware ADS-B
01:59PM 36.9681 -123.0840 1000° North 527 606 39,000  Level FlightAware ADS-B
01:59PM 36.9532 -123.0470 117° Southeast 529 609 39,000  Level FlightAware ADS-B
02:00PM 36.9499 -123.0393 116° Southeast 526 605 39,000  Level FlightAware ADS-B
02:02PM 36.7941 -122.6580 117° Southeast 524 603 39,000  Level FlightAware ADS-B
02:03PM 36.7347 -122.5140 117° Southeast 524 603 39,000  Level FlightAware ADS-B
02:04PM 36.6673 -122.3510 117° Southeast 523 602 39,000  Level FlightAware ADS-B
02:04PM 36.6783 -122.3774 117° Southeast 502 578 39,000  Level FlightAware ADS-B
02:04PM 36.6354 -122.2740 117° Southeast 488 562 39,000  Level FlightAware ADS-B
02:05PM 36.5823 -122.1464 117° Southeast 479 551 39,000  Level FlightAware ADS-B
02:07PM 36.4447 -121.8180 118° Southeast 478 550 39,000  Level FlightAware ADS-B
02:12PM 36.1773 -121.1900 118° Southeast 480 552 39,000  Level FlightAware ADS-B
02:12PM 36.1404 -121.1040 118° Southeast 480 552 39,000  Level FlightAware ADS-B
02:20PM 35.6686 -120.0278 123° Southeast 490 564 39,000  Level FlightAware ADS-B
02:21PM 35.5819 -119.9225 145° Southeast 497 572 39,000  Level FlightAware ADS-B
02:21PM 35.5233 -119.8718 145° Southeast 509 586 39,000  Level FlightAware ADS-B
02:22PM 35.4400 -119.7999 145° Southeast 509 586 39,000 -1,080 Level FlightAware ADS-B
02:23PM 35.3681 -119.7381 145° Southeast 508 585 37,600 -1,080 Descending FlightAware ADS-B
02:23PM 35.2801 -119.6620 145° Southeast 492 566 37,500 -600 Descending FlightAware ADS-B
02:24PM 35.2103 -119.6023 145° Southeast 495 570 36,800 -1,620 Descending FlightAware ADS-B
02:25PM 35.1302 -119.5339 145° Southeast 510 587 35,300 -2,760 Descending FlightAware ADS-B
02:25PM 35.0439 -119.4603 145° Southeast 511 588 33,200 -3,240 Descending FlightAware ADS-B
02:26PM 34.9681 -119.3959 145° Southeast 508 585 31,200 -3,000 Descending FlightAware ADS-B
02:27PM 34.8770 -119.3190 145° Southeast 503 579 28,900 -3,420 Descending FlightAware ADS-B
02:27PM 34.7910 -119.2460 145° Southeast 509 586 25,900 -3,660 Descending FlightAware ADS-B
02:29PM 34.6185 -119.1002 145° Southeast 476 548 20,000 -2,580 Descending FlightAware ADS-B
02:30PM 34.4651 -118.9731 146° Southeast 412 474 18,200 -2,160 Descending FlightAware ADS-B
02:31PM 34.4129 -118.9308 147° Southeast 428 493 16,000 -3,300 Descending FlightAware ADS-B
02:32PM 34.3283 -118.8670 149° Southeast 420 483 13,800 -2,340 Descending FlightAware ADS-B
02:33PM 34.2485 -118.8151 165° South 374 430 12,100 -1,320 Descending FlightAware ADS-B
02:34PM 34.2005 -118.8101 170° South 323 372 11,600 -720 Descending FlightAware ADS-B
02:34PM 34.1075 -118.7895 163° South 311 358 11,100 -780 Descending FlightAware ADS-B
02:35PM 34.0478 -118.7544 128° Southeast 287 330 10,500 -780 Descending FlightAware ADS-B
02:36PM 34.0333 -118.7004 97° East 273 314 10,000 -720 Descending FlightAware ADS-B
02:36PM 34.0299 -118.6655 97° East 272 313 9,800 -1,200 Descending FlightAware ADS-B
02:37PM 34.0213 -118.5754 97° East 283 326 8,300 -1,500 Descending FlightAware ADS-B
02:37PM 34.0178 -118.5383 96° East 281 323 7,800 -1,380 Descending FlightAware ADS-B
02:38PM 34.0146 -118.5034 96° East 278 320 7,400 -1,200 Descending FlightAware ADS-B
02:38PM 34.0119 -118.4749 96° East 277 319 7,000 -1,200 Descending FlightAware ADS-B
02:39PM 34.0158 -118.4118 81° East 275 316 6,200 -1,020 Descending FlightAware ADS-B
02:39PM 34.0197 -118.3832 81° East 267 307 6,000 -240 Descending FlightAware ADS-B
02:40PM 34.0167 -118.3500 81° East 266 306 6,000 -540 Level Southern California TRACON
02:41PM 34.0333 -118.2667 76° East 230 265 5,200 -840 Descending Southern California TRACON
02:42PM 34.0439 -118.1964 80° East 223 257 4,300 -1,020 Descending Los Angeles Center
02:43PM 34.0392 -118.1286 95° East 207 238 3,200 -900 Descending Los Angeles Center
02:44PM 33.9833 -118.1167 170° South 185 213 2,600 -300 Descending Southern California TRACON
02:45PM 33.9594 -118.1667 240° Southwest 171 197 2,600  Level Los Angeles Center
02:46PM 33.9533 -118.2294 263° West 185 213 2,600 -480 Level Los Angeles Center
02:47PM 33.9475 -118.2856 263° West 182 209 1,700 -780 Descending Los Angeles Center
02:48PM 33.9436 -118.3322 264° West 158 182 1,000 -780 Descending Los Angeles Center
02:49PM 33.9389 -118.3803 263° West 149 171 200 -780 Descending Los Angeles Center